Time;durP1;ratioP1;P1;durP2;ratioP2;P2;SDS_P1;SDS_P2;PMS_P1;PMS_P2;Temp;Humidity;BMP_temperature;BMP_pressure;BME280_temperature;BME280_humidity;BME280_pressure;Samples;Min_cycle;Max_cycle;Signal;HPM_P1;HPM_P2
2024/03/10 00:01:33;;;;;;;9.57;6.83;;;;;;;10.98;73.43;96129.41;5136832;23;21208;-84
2024/03/10 00:03:37;;;;;;;12.47;7.20;;;;;;;11.01;73.77;96118.66;5136997;23;20632;-84
2024/03/10 00:05:41;;;;;;;9.30;6.10;;;;;;;11.01;72.40;96117.84;5161026;23;20987;-84
2024/03/10 00:07:47;;;;;;;10.63;6.57;;;;;;;11.06;73.04;96113.78;5135206;23;20591;-85
2024/03/10 00:09:50;;;;;;;8.53;5.80;;;;;;;11.10;73.71;96107.31;5137352;23;20593;-84
2024/03/10 00:11:54;;;;;;;8.33;5.97;;;;;;;11.12;73.22;96109.75;5162413;23;20573;-84
2024/03/10 00:13:59;;;;;;;7.20;5.23;;;;;;;11.12;72.39;96109.75;5162673;23;21161;-85
2024/03/10 00:16:02;;;;;;;8.80;6.20;;;;;;;11.05;73.56;96106.97;5161775;23;20561;-85
2024/03/10 00:18:06;;;;;;;8.40;6.33;;;;;;;11.04;73.64;96109.72;5162321;23;20626;-85
2024/03/10 00:20:11;;;;;;;10.40;6.53;;;;;;;11.04;73.65;96110.53;5137325;23;20605;-85
2024/03/10 00:22:16;;;;;;;8.37;6.43;;;;;;;11.05;73.77;96106.13;5137756;23;20569;-84
2024/03/10 00:24:21;;;;;;;8.03;5.83;;;;;;;11.03;73.92;96114.09;5137692;23;20633;-85
2024/03/10 00:26:24;;;;;;;9.27;6.10;;;;;;;11.02;74.06;96109.03;5161416;23;20844;-86
2024/03/10 00:28:29;;;;;;;8.77;6.60;;;;;;;11.03;74.43;96121.13;5162394;23;20580;-85
2024/03/10 00:30:33;;;;;;;8.23;5.60;;;;;;;11.05;74.10;96109.56;5161098;23;20650;-84
2024/03/10 00:32:35;;;;;;;10.37;5.77;;;;;;;11.08;73.64;96104.03;5187190;22;20567;-85
2024/03/10 00:34:39;;;;;;;8.97;6.20;;;;;;;11.09;72.98;96104.84;5136321;23;20574;-84
2024/03/10 00:36:42;;;;;;;8.13;5.73;;;;;;;11.09;73.79;96095.22;5159847;23;20576;-85
2024/03/10 00:38:45;;;;;;;8.57;6.00;;;;;;;11.08;73.09;96101.44;5189061;22;20705;-84
2024/03/10 00:40:50;;;;;;;10.07;7.10;;;;;;;11.09;74.64;96097.03;5136430;23;21043;-84
2024/03/10 00:42:53;;;;;;;8.43;6.23;;;;;;;11.07;73.76;96091.16;5135929;23;20668;-84
2024/03/10 00:44:57;;;;;;;9.00;6.67;;;;;;;11.07;74.06;96099.78;5161020;23;20556;-84
2024/03/10 00:47:01;;;;;;;8.50;6.40;;;;;;;11.02;74.82;96093.38;5135079;23;20588;-83
2024/03/10 00:49:04;;;;;;;9.37;5.87;;;;;;;10.97;73.42;96091.25;5161918;23;20573;-84
2024/03/10 00:51:07;;;;;;;10.13;6.57;;;;;;;10.96;74.29;96094.84;5160723;23;20958;-84
2024/03/10 00:53:10;;;;;;;12.40;6.83;;;;;;;10.93;73.82;96092.56;5135883;23;20636;-84
2024/03/10 00:55:13;;;;;;;8.63;6.27;;;;;;;10.94;74.79;96082.94;5155987;23;20584;-84
2024/03/10 00:57:17;;;;;;;8.43;5.77;;;;;;;10.95;74.17;96087.19;5158358;23;21022;-84
2024/03/10 00:59:20;;;;;;;8.07;5.73;;;;;;;10.93;74.72;96089.94;5162111;23;21150;-85
2024/03/10 01:01:23;;;;;;;7.17;4.93;;;;;;;10.91;73.80;96075.41;5161811;23;20611;-84
2024/03/10 01:03:26;;;;;;;7.30;5.67;;;;;;;10.92;74.07;96075.25;5160042;23;20596;-85
2024/03/10 01:05:30;;;;;;;7.70;5.40;;;;;;;10.93;73.10;96078.69;5135307;23;20601;-84
2024/03/10 01:07:34;;;;;;;8.00;5.47;;;;;;;10.95;73.98;96072.34;5136162;23;20665;-85
2024/03/10 01:09:37;;;;;;;9.00;5.30;;;;;;;10.98;73.29;96082.47;5134797;23;20581;-84
2024/03/10 01:11:42;;;;;;;9.57;5.50;;;;;;;11.03;73.60;96080.19;5136107;23;20577;-84
2024/03/10 01:13:50;;;;;;;8.10;5.40;;;;;;;11.03;72.98;96079.38;5160611;23;20584;-85
2024/03/10 01:15:54;;;;;;;8.10;5.30;;;;;;;11.04;72.37;96076.63;5159686;23;20634;-85
2024/03/10 01:17:57;;;;;;;7.20;4.73;;;;;;;11.03;72.35;96080.19;5161417;23;20616;-84
2024/03/10 01:20:01;;;;;;;6.53;5.03;;;;;;;11.04;71.54;96075.81;5162015;23;20573;-84
2024/03/10 01:22:05;;;;;;;7.27;4.80;;;;;;;11.04;71.32;96084.44;5135489;23;20640;-84
2024/03/10 01:24:08;;;;;;;6.93;4.80;;;;;;;11.07;71.42;96076.31;5157501;23;20619;-84
2024/03/10 01:26:11;;;;;;;8.13;5.23;;;;;;;11.09;70.27;96083.97;5160877;23;20638;-84
2024/03/10 01:28:14;;;;;;;6.37;4.53;;;;;;;11.09;71.09;96081.38;5136301;23;20584;-84
2024/03/10 01:30:20;;;;;;;6.33;4.63;;;;;;;11.14;70.37;96081.72;5161133;23;20569;-84
2024/03/10 01:32:24;;;;;;;6.20;4.30;;;;;;;11.13;69.91;96075.69;5136132;23;20948;-84
2024/03/10 01:34:28;;;;;;;7.07;4.53;;;;;;;11.14;70.59;96072.09;5160469;23;20581;-85
2024/03/10 01:36:31;;;;;;;6.20;3.80;;;;;;;11.16;70.88;96064.13;5186014;22;20552;-85
2024/03/10 01:38:34;;;;;;;7.53;4.67;;;;;;;11.19;70.71;96066.41;5134632;23;20585;-84
2024/03/10 01:40:38;;;;;;;7.60;4.70;;;;;;;11.21;70.13;96054.03;5135688;23;20608;-85
2024/03/10 01:42:41;;;;;;;7.57;5.10;;;;;;;11.21;70.34;96056.63;5159919;23;20588;-85
2024/03/10 01:44:45;;;;;;;8.00;5.40;;;;;;;11.17;71.14;96060.53;5160564;23;20631;-84
2024/03/10 01:46:51;;;;;;;8.40;5.63;;;;;;;11.16;72.70;96051.09;5159697;23;20612;-84
2024/03/10 01:48:55;;;;;;;6.67;4.70;;;;;;;11.11;71.50;96045.50;5161002;23;21142;-85
2024/03/10 01:50:59;;;;;;;7.30;4.63;;;;;;;11.10;70.83;96039.47;5161760;23;20572;-85
2024/03/10 01:53:03;;;;;;;6.13;4.57;;;;;;;11.11;70.84;96033.28;5160732;23;20572;-85
2024/03/10 01:55:06;;;;;;;7.93;4.63;;;;;;;11.13;69.74;96047.00;5134338;23;20983;-85
2024/03/10 01:57:09;;;;;;;7.10;5.17;;;;;;;11.14;70.09;96034.75;5135142;23;20578;-85
2024/03/10 01:59:13;;;;;;;7.20;4.50;;;;;;;11.14;70.10;96032.97;5135933;23;20813;-85
2024/03/10 02:01:17;;;;;;;7.17;4.90;;;;;;;11.14;70.10;96027.75;5161671;23;20584;-88
2024/03/10 02:03:22;;;;;;;9.20;4.70;;;;;;;11.11;70.58;96027.25;5136283;23;20557;-89
2024/03/10 02:05:25;;;;;;;7.30;4.93;;;;;;;11.05;69.85;96025.25;5134714;23;20573;-91
2024/03/10 02:07:30;;;;;;;7.20;5.13;;;;;;;10.99;71.03;96024.13;5161263;23;20612;-90
2024/03/10 02:09:35;;;;;;;6.60;4.13;;;;;;;11.00;70.72;96027.53;5137788;23;20572;-91
2024/03/10 02:11:40;;;;;;;7.93;4.90;;;;;;;10.97;70.42;96007.78;5161372;23;20577;-88
2024/03/10 02:13:44;;;;;;;7.50;4.60;;;;;;;10.91;70.47;96012.84;5161271;23;20687;-90
2024/03/10 02:16:00;;;;;;;7.27;4.80;;;;;;;10.90;71.82;96017.25;5136964;22;20572;-91
2024/03/10 02:18:05;;;;;;;6.60;4.90;;;;;;;10.89;71.22;96020.00;5135589;23;20696;-91
2024/03/10 02:20:19;;;;;;;10.07;5.10;;;;;;;10.86;71.34;96005.47;5160448;23;20580;-92
2024/03/10 02:22:26;;;;;;;8.50;5.30;;;;;;;10.87;71.06;96014.94;5162621;23;20580;-91
2024/03/10 02:24:33;;;;;;;6.40;4.50;;;;;;;10.86;71.23;96021.13;5137077;23;20580;-89
2024/03/10 02:26:42;;;;;;;9.53;6.10;;;;;;;10.82;71.84;96013.78;5138064;23;20806;-92
2024/03/10 02:28:57;;;;;;;7.00;4.90;;;;;;;10.76;71.46;96010.97;5138358;23;20603;-91
2024/03/10 02:47:12;;;;;;;6.63;4.47;;;;;;;10.63;71.97;96005.38;5163061;23;20581;-91
2024/03/10 02:47:39;;;;;;;7.20;4.83;;;;;;;10.43;72.82;95985.72;5190498;22;20635;-89
2024/03/10 02:49:43;;;;;;;5.47;4.27;;;;;;;10.42;72.42;95973.69;5163162;23;20589;-90
2024/03/10 02:51:48;;;;;;;6.53;4.20;;;;;;;10.42;72.62;95964.09;5139637;23;20611;-92
2024/03/10 02:53:53;;;;;;;6.20;3.97;;;;;;;10.46;72.97;95959.38;5163764;22;20586;-90
2024/03/10 02:55:56;;;;;;;6.63;4.47;;;;;;;10.46;72.23;95959.38;5139462;23;20781;-91
2024/03/10 02:58:03;;;;;;;6.70;4.50;;;;;;;10.48;71.71;95952.22;5140421;23;20583;-91
2024/03/10 03:00:13;;;;;;;5.70;3.77;;;;;;;10.52;71.48;95959.53;5165012;23;21202;-88
2024/03/10 03:02:18;;;;;;;5.87;3.90;;;;;;;10.53;71.71;95947.34;5165039;23;20603;-91
2024/03/10 03:04:26;;;;;;;5.80;4.37;;;;;;;10.53;71.12;95942.16;5138303;23;20581;-91
2024/03/10 03:06:28;;;;;;;6.77;4.40;;;;;;;10.53;71.42;95939.53;5161641;23;21154;-91
2024/03/10 03:08:32;;;;;;;5.57;4.40;;;;;;;10.55;71.83;95942.78;5138553;23;20621;-91
2024/03/10 03:10:36;;;;;;;6.13;4.43;;;;;;;10.58;71.36;95937.28;5165525;22;20640;-91
2024/03/10 03:12:42;;;;;;;7.03;4.70;;;;;;;10.54;71.61;95934.16;5140315;22;20570;-91
2024/03/10 03:14:49;;;;;;;6.13;4.00;;;;;;;10.54;71.51;95931.56;5164490;23;20580;-89
2024/03/10 03:16:52;;;;;;;5.93;4.13;;;;;;;10.54;71.48;95947.19;5136453;23;20584;-91
2024/03/10 03:18:55;;;;;;;6.83;4.50;;;;;;;10.47;71.26;95938.38;5190083;22;20579;-91
2024/03/10 03:20:59;;;;;;;11.00;5.33;;;;;;;10.46;71.35;95934.16;5137851;23;20581;-92
2024/03/10 03:23:04;;;;;;;5.80;4.17;;;;;;;10.50;71.51;95929.44;5135818;23;21027;-91
2024/03/10 03:25:09;;;;;;;5.50;3.93;;;;;;;10.48;71.69;95924.38;5136741;23;20564;-92
2024/03/10 03:27:14;;;;;;;5.73;4.40;;;;;;;10.46;71.83;95928.09;5161739;23;20617;-91
2024/03/10 03:29:18;;;;;;;7.37;4.70;;;;;;;10.44;72.13;95928.25;5160376;23;20587;-88
2024/03/10 03:31:23;;;;;;;7.40;4.50;;;;;;;10.46;71.50;95928.09;5163230;23;20582;-90
2024/03/10 03:33:28;;;;;;;6.83;4.43;;;;;;;10.46;71.80;95928.09;5137431;23;20608;-91
2024/03/10 03:35:31;;;;;;;6.20;4.00;;;;;;;10.46;71.35;95921.13;5135152;23;20668;-90
2024/03/10 03:37:35;;;;;;;6.03;4.13;;;;;;;10.47;71.79;95919.31;5162659;23;20620;-88
2024/03/10 03:39:39;;;;;;;8.30;4.40;;;;;;;10.44;72.00;95914.41;5137364;23;20632;-91
2024/03/10 03:41:43;;;;;;;7.30;3.63;;;;;;;10.43;72.03;95912.78;5134259;23;20601;-89
2024/03/10 03:43:49;;;;;;;8.47;4.83;;;;;;;10.44;72.11;95909.22;5135615;23;20640;-91
2024/03/10 03:45:53;;;;;;;8.33;4.97;;;;;;;10.43;72.05;95899.75;5136451;23;20581;-91
2024/03/10 03:47:58;;;;;;;6.17;4.30;;;;;;;10.41;71.92;95912.13;5160059;23;20625;-92
2024/03/10 03:50:08;;;;;;;7.10;4.40;;;;;;;10.38;72.12;95909.84;5139168;22;20570;-90
2024/03/10 03:52:12;;;;;;;6.90;4.33;;;;;;;10.43;72.12;95913.63;5138353;23;20573;-88
2024/03/10 03:54:16;;;;;;;6.00;4.03;;;;;;;10.39;72.26;95919.28;5161543;23;20585;-91
2024/03/10 03:56:20;;;;;;;5.67;3.67;;;;;;;10.35;72.31;95910.16;5135130;23;20588;-91
2024/03/10 03:58:24;;;;;;;6.13;4.37;;;;;;;10.32;72.72;95902.66;5187603;22;20584;-89
2024/03/10 04:00:29;;;;;;;6.10;3.57;;;;;;;10.28;72.48;95893.50;5136815;23;20584;-91
2024/03/10 04:02:34;;;;;;;6.57;4.27;;;;;;;10.29;72.28;95884.72;5136820;23;21417;-91
2024/03/10 04:04:40;;;;;;;7.13;4.20;;;;;;;10.29;72.54;95873.50;5188618;22;20571;-91
2024/03/10 04:06:43;;;;;;;7.13;4.50;;;;;;;10.22;72.19;95860.25;5162151;23;20707;-89
2024/03/10 04:08:48;;;;;;;5.57;4.07;;;;;;;10.25;72.49;95865.16;5186682;22;20617;-91
2024/03/10 04:10:53;;;;;;;5.67;4.20;;;;;;;10.18;72.60;95864.16;5135473;23;20649;-91
2024/03/10 04:12:56;;;;;;;5.57;3.60;;;;;;;10.11;72.96;95870.97;5162450;23;20662;-91
2024/03/10 04:15:01;;;;;;;7.17;4.67;;;;;;;10.15;73.03;95868.84;5158684;23;20951;-90
2024/03/10 04:17:05;;;;;;;4.93;3.67;;;;;;;10.15;72.81;95864.47;5189031;22;20587;-91
2024/03/10 04:19:09;;;;;;;6.70;3.80;;;;;;;10.11;72.47;95855.34;5161618;23;20583;-89
2024/03/10 04:21:12;;;;;;;5.77;3.60;;;;;;;10.12;73.11;95853.56;5136875;23;21116;-91
2024/03/10 04:23:16;;;;;;;6.63;4.10;;;;;;;10.12;72.81;95838.75;5161324;23;20580;-90
2024/03/10 04:25:40;;;;;;;5.10;3.60;;;;;;;10.11;72.55;95836.31;5163677;22;20165;-92
2024/03/10 04:28:04;;;;;;;5.13;3.50;;;;;;;10.07;72.26;95830.59;5144852;22;20617;-92
2024/03/10 04:30:28;;;;;;;5.37;3.57;;;;;;;10.09;72.43;95826.03;5144982;22;20555;-92
2024/03/10 04:32:51;;;;;;;5.90;4.00;;;;;;;10.03;72.71;95829.28;5146561;22;20938;-90
2024/03/10 04:35:15;;;;;;;5.57;4.10;;;;;;;10.01;73.02;95817.38;5166534;22;20642;-91
2024/03/10 04:37:40;;;;;;;5.10;3.72;;;;;;;9.92;74.08;95808.69;5166689;22;20573;-91
2024/03/10 04:40:06;;;;;;;5.43;3.70;;;;;;;9.89;73.42;95801.22;5167811;22;20696;-91
2024/03/10 04:42:28;;;;;;;5.17;3.40;;;;;;;9.86;73.93;95804.13;5144420;22;20513;-87
2024/03/10 04:44:50;;;;;;;6.55;3.92;;;;;;;9.86;73.13;95806.72;5143638;22;20593;-91
2024/03/10 04:47:13;;;;;;;5.40;3.70;;;;;;;9.83;73.87;95808.00;5140918;23;20557;-91
2024/03/10 04:49:35;;;;;;;6.57;3.70;;;;;;;9.84;73.73;95807.03;5189500;22;20573;-91
2024/03/10 04:51:56;;;;;;;5.63;3.03;;;;;;;9.80;73.48;95816.91;5145004;22;20995;-91
2024/03/10 04:54:20;;;;;;;5.40;3.43;;;;;;;9.78;72.89;95824.09;5144246;22;20525;-91
2024/03/10 04:56:42;;;;;;;5.47;3.57;;;;;;;9.75;73.54;95834.81;5144420;22;20584;-91
2024/03/10 04:59:05;;;;;;;5.30;3.40;;;;;;;9.72;73.62;95831.69;5166564;22;20563;-91
2024/03/10 05:01:28;;;;;;;6.47;4.17;;;;;;;9.69;73.85;95826.81;5167145;22;20583;-91
2024/03/10 05:03:50;;;;;;;7.00;3.80;;;;;;;9.62;73.82;95823.19;5145340;22;20526;-93
2024/03/10 05:06:12;;;;;;;5.40;3.63;;;;;;;9.65;74.37;95825.47;5166388;22;20651;-90
2024/03/10 05:08:34;;;;;;;4.57;3.23;;;;;;;9.59;74.13;95819.13;5145167;22;20234;-91
2024/03/10 05:10:57;;;;;;;4.75;3.28;;;;;;;9.59;74.21;95826.09;5190271;22;20566;-91
2024/03/10 05:13:20;;;;;;;4.68;3.03;;;;;;;9.59;74.96;95826.09;5144127;22;20677;-90
2024/03/10 05:15:42;;;;;;;5.25;4.25;;;;;;;9.52;73.91;95819.88;5165525;22;20169;-89
2024/03/10 05:18:05;;;;;;;6.28;3.92;;;;;;;9.56;74.62;95826.41;5164924;22;20227;-92
2024/03/10 05:20:28;;;;;;;4.17;3.13;;;;;;;9.56;74.34;95829.00;5166258;22;20230;-90
2024/03/10 05:22:50;;;;;;;4.43;3.30;;;;;;;9.59;73.72;95823.47;5165780;22;20511;-91
2024/03/10 05:25:12;;;;;;;5.38;3.65;;;;;;;9.58;73.77;95830.50;5165622;22;20168;-92
2024/03/10 05:27:37;;;;;;;5.10;3.50;;;;;;;9.59;74.29;95831.28;5166199;22;20632;-90
2024/03/10 05:29:58;;;;;;;4.75;3.10;;;;;;;9.60;74.05;95828.53;5144231;22;20182;-84
2024/03/10 05:32:20;;;;;;;4.15;3.45;;;;;;;9.59;74.17;95832.13;5187327;22;20192;-84
2024/03/10 05:34:43;;;;;;;4.55;3.40;;;;;;;9.65;73.07;95830.69;5162103;22;20233;-84
2024/03/10 05:37:05;;;;;;;4.40;2.90;;;;;;;9.62;73.41;95831.81;5165514;22;20169;-83
2024/03/10 05:39:28;;;;;;;4.40;2.70;;;;;;;9.63;72.69;95811.81;5164105;22;21121;-84
2024/03/10 05:41:50;;;;;;;5.28;3.38;;;;;;;9.63;72.98;95814.41;5143950;22;20193;-84
2024/03/10 05:44:14;;;;;;;5.43;3.23;;;;;;;9.64;73.07;95823.88;5143706;22;20254;-84
2024/03/10 05:46:36;;;;;;;4.25;3.25;;;;;;;9.59;72.57;95821.72;5143289;22;20592;-84
2024/03/10 05:49:01;;;;;;;5.10;3.30;;;;;;;9.59;74.03;95828.69;5188466;22;20951;-84
2024/03/10 05:51:23;;;;;;;5.90;3.20;;;;;;;9.57;72.84;95821.03;5143535;22;20862;-84
2024/03/10 05:53:45;;;;;;;4.60;2.85;;;;;;;9.57;73.46;95828.03;5165337;22;20520;-83
2024/03/10 05:56:08;;;;;;;4.33;3.07;;;;;;;9.54;72.38;95833.53;5143722;22;20243;-84
2024/03/10 05:58:31;;;;;;;4.10;2.93;;;;;;;9.48;73.37;95834.16;5165540;22;20548;-83
2024/03/10 06:00:55;;;;;;;4.05;2.90;;;;;;;9.50;73.08;95842.63;5188565;22;21166;-84
2024/03/10 06:03:18;;;;;;;4.90;2.92;;;;;;;9.49;73.59;95841.00;5167361;22;20234;-83
2024/03/10 06:05:41;;;;;;;7.75;2.90;;;;;;;9.50;73.29;95846.06;5144142;22;20172;-84
2024/03/10 06:08:04;;;;;;;4.78;3.45;;;;;;;9.51;73.07;95855.47;5167425;22;20172;-83
2024/03/10 06:10:27;;;;;;;4.10;2.97;;;;;;;9.48;73.71;95849.78;5145451;22;20213;-84
2024/03/10 06:12:50;;;;;;;4.82;3.00;;;;;;;9.48;72.52;95862.78;5166239;22;20169;-84
2024/03/10 06:15:16;;;;;;;5.13;3.03;;;;;;;9.46;73.77;95875.94;5164612;22;20165;-84
2024/03/10 06:17:40;;;;;;;5.20;3.25;;;;;;;9.52;73.12;95874.53;5144648;22;20177;-84
2024/03/10 06:25:27;;;;;;;4.60;3.00;;;;;;;9.57;73.09;95867.06;5166297;22;20223;-84
2024/03/10 06:27:51;;;;;;;5.00;3.25;;;;;;;9.59;72.55;95867.72;5145069;22;20185;-85
2024/03/10 06:30:14;;;;;;;4.10;2.97;;;;;;;9.58;73.01;95861.72;5144080;22;20192;-84
2024/03/10 06:32:36;;;;;;;4.38;3.00;;;;;;;9.53;72.47;95848.34;5165927;22;20173;-84
2024/03/10 06:35:00;;;;;;;4.90;3.03;;;;;;;9.53;72.61;95848.34;5144501;22;20166;-84
2024/03/10 06:37:22;;;;;;;5.35;3.15;;;;;;;9.52;73.53;95841.50;5145643;22;20516;-84
2024/03/10 06:39:45;;;;;;;4.45;2.97;;;;;;;9.58;72.26;95830.50;5187470;22;20297;-84
2024/03/10 06:42:07;;;;;;;4.45;3.05;;;;;;;9.58;71.90;95835.69;5166117;22;20237;-84
2024/03/10 06:44:30;;;;;;;3.83;2.77;;;;;;;9.63;72.25;95837.84;5165548;22;20703;-84
2024/03/10 06:46:52;;;;;;;4.77;2.30;;;;;;;9.61;71.73;95837.19;5166351;22;20615;-84
2024/03/10 06:49:14;;;;;;;4.20;2.53;;;;;;;9.66;71.35;95848.75;5167511;22;20579;-84
2024/03/10 06:51:38;;;;;;;4.68;2.70;;;;;;;9.70;71.44;95839.66;5166834;22;20236;-84
2024/03/10 06:53:59;;;;;;;5.63;3.20;;;;;;;9.70;71.34;95839.66;5189780;22;20163;-84
2024/03/10 06:56:22;;;;;;;4.33;2.60;;;;;;;9.72;71.52;95837.72;5166772;22;20515;-85
2024/03/10 06:58:47;;;;;;;4.40;2.73;;;;;;;9.70;71.10;95841.47;5144830;22;20641;-84
2024/03/10 07:01:10;;;;;;;3.37;2.33;;;;;;;9.69;70.86;95832.81;5189557;22;20562;-84
2024/03/10 07:03:32;;;;;;;5.82;2.88;;;;;;;9.74;71.52;95806.31;5165179;22;20658;-85
2024/03/10 07:05:54;;;;;;;4.20;2.72;;;;;;;9.69;71.58;95806.78;5143557;22;20244;-84
2024/03/10 07:08:18;;;;;;;3.75;2.45;;;;;;;9.71;71.91;95810.06;5144994;22;20166;-84
2024/03/10 07:10:41;;;;;;;4.60;2.83;;;;;;;9.76;70.98;95817.38;5165165;22;20187;-83
2024/03/10 07:13:04;;;;;;;4.72;2.58;;;;;;;9.68;70.85;95807.78;5165977;22;20168;-83
2024/03/10 07:15:26;;;;;;;4.97;2.70;;;;;;;9.76;71.25;95812.19;5165591;22;20169;-84
2024/03/10 07:17:48;;;;;;;4.85;2.83;;;;;;;9.75;71.07;95829.59;5165551;22;20547;-84
2024/03/10 07:20:10;;;;;;;5.68;2.85;;;;;;;9.79;71.39;95832.69;5166006;22;20199;-84
2024/03/10 07:22:33;;;;;;;3.97;2.70;;;;;;;9.82;71.44;95814.16;5165982;22;20628;-84
2024/03/10 07:24:57;;;;;;;4.30;2.58;;;;;;;9.76;70.85;95809.56;5144581;22;21067;-87
2024/03/10 07:27:19;;;;;;;4.00;2.30;;;;;;;9.72;70.83;95798.69;5143380;22;20219;-84
2024/03/10 07:29:43;;;;;;;4.03;2.60;;;;;;;9.70;70.38;95803.22;5144582;22;20208;-85
2024/03/10 07:32:06;;;;;;;3.77;2.40;;;;;;;9.71;71.34;95794.47;5144186;22;20517;-83
2024/03/10 07:34:29;;;;;;;4.10;2.47;;;;;;;9.70;71.18;95792.00;5144814;22;20601;-82
2024/03/10 07:36:51;;;;;;;5.95;3.05;;;;;;;9.71;71.34;95802.28;5165824;22;20507;-81
2024/03/10 07:39:14;;;;;;;3.87;2.40;;;;;;;9.72;71.15;95795.25;5166853;22;20629;-82
2024/03/10 07:41:37;;;;;;;3.13;1.90;;;;;;;9.68;70.89;95789.56;5145388;22;20649;-82
2024/03/10 07:44:00;;;;;;;3.27;2.40;;;;;;;9.70;70.82;95782.41;5166418;22;20520;-81
2024/03/10 07:46:25;;;;;;;5.55;2.90;;;;;;;9.66;70.70;95780.28;5145390;22;20521;-81
2024/03/10 07:48:49;;;;;;;3.50;2.10;;;;;;;9.63;70.93;95785.78;5190723;22;20192;-80
2024/03/10 07:51:11;;;;;;;3.53;2.20;;;;;;;9.59;71.27;95784.47;5146156;22;20513;-84
2024/03/10 07:53:33;;;;;;;3.78;2.45;;;;;;;9.62;71.14;95774.56;5145154;22;20209;-84
2024/03/10 07:55:57;;;;;;;3.40;1.93;;;;;;;9.62;70.98;95773.75;5145328;22;20198;-85
2024/03/10 07:58:21;;;;;;;3.92;2.50;;;;;;;9.65;70.89;95765.63;5166492;22;20520;-86
2024/03/10 08:00:44;;;;;;;6.13;2.83;;;;;;;9.70;71.14;95771.19;5143299;22;20165;-85
2024/03/10 08:03:06;;;;;;;4.15;2.50;;;;;;;9.64;71.87;95767.41;5146185;22;20634;-84
2024/03/10 08:05:29;;;;;;;7.00;4.55;;;;;;;9.70;71.91;95785.00;5145311;22;20226;-85
2024/03/10 08:07:54;;;;;;;5.40;4.00;;;;;;;9.78;71.94;95800.66;5167717;22;20563;-86
2024/03/10 08:10:17;;;;;;;4.72;3.55;;;;;;;9.82;72.55;95816.75;5165970;22;20328;-86
2024/03/10 08:12:39;;;;;;;6.28;4.28;;;;;;;9.81;71.37;95821.16;5165880;22;20216;-85
2024/03/10 08:15:06;;;;;;;6.57;3.70;;;;;;;9.85;71.67;95825.91;5144713;22;20287;-86
2024/03/10 08:17:28;;;;;;;5.38;3.10;;;;;;;9.97;71.12;95835.09;5145712;22;20721;-85
2024/03/10 08:19:52;;;;;;;5.85;3.40;;;;;;;10.13;71.05;95835.19;5169745;22;20171;-86
2024/03/10 08:22:15;;;;;;;5.17;3.17;;;;;;;10.24;70.69;95837.50;5147425;22;20173;-87
2024/03/10 08:24:37;;;;;;;5.97;4.50;;;;;;;10.50;70.20;95836.41;5168160;22;20544;-86
2024/03/10 08:26:59;;;;;;;4.30;2.60;;;;;;;10.65;68.88;95837.44;5147187;22;20574;-86
2024/03/10 08:29:21;;;;;;;9.30;6.00;;;;;;;10.67;68.91;95843.28;5167865;22;20713;-86
2024/03/10 08:31:44;;;;;;;5.97;3.90;;;;;;;10.68;69.17;95828.50;5169236;22;20563;-85
2024/03/10 08:34:06;;;;;;;5.22;2.90;;;;;;;10.74;68.16;95828.66;5145444;22;20604;-85
2024/03/10 08:36:29;;;;;;;4.40;2.57;;;;;;;10.82;69.54;95824.28;5144990;22;20169;-85
2024/03/10 08:38:51;;;;;;;3.92;2.40;;;;;;;10.97;68.76;95825.22;5190338;22;21062;-86
2024/03/10 08:41:14;;;;;;;4.10;2.63;;;;;;;11.09;69.13;95818.72;5189784;22;20256;-85
2024/03/10 08:43:35;;;;;;;4.90;2.80;;;;;;;11.17;68.45;95808.31;5166937;22;20520;-85
2024/03/10 08:45:57;;;;;;;4.77;2.50;;;;;;;11.11;67.60;95793.31;5165965;22;20525;-85
2024/03/10 08:48:20;;;;;;;4.43;2.50;;;;;;;11.15;67.49;95783.34;5166587;22;20532;-85
2024/03/10 08:50:42;;;;;;;4.43;2.40;;;;;;;11.18;68.88;95781.22;5144051;22;21119;-86
2024/03/10 08:53:05;;;;;;;4.77;2.80;;;;;;;11.18;68.31;95773.38;5145660;22;20653;-85
2024/03/10 08:55:27;;;;;;;4.20;2.50;;;;;;;11.17;67.08;95765.72;5144523;22;20597;-86
2024/03/10 08:57:50;;;;;;;4.50;2.50;;;;;;;11.14;67.53;95771.28;5166324;22;20543;-86
2024/03/10 09:00:14;;;;;;;3.70;2.40;;;;;;;11.09;67.48;95779.59;5144526;22;21188;-81
2024/03/10 09:02:38;;;;;;;4.87;2.67;;;;;;;11.12;68.09;95781.88;5165734;22;20564;-81
2024/03/10 09:05:03;;;;;;;4.17;2.03;;;;;;;11.20;67.70;95776.66;5165513;22;20517;-81
2024/03/10 09:07:25;;;;;;;4.03;2.50;;;;;;;11.20;68.14;95768.84;5166316;22;20583;-81
2024/03/10 09:09:47;;;;;;;4.50;2.30;;;;;;;11.24;68.66;95780.56;5166396;22;21075;-81
2024/03/10 09:12:10;;;;;;;4.33;2.20;;;;;;;11.33;68.69;95790.00;5144545;22;20514;-80
2024/03/10 09:14:32;;;;;;;5.20;2.17;;;;;;;11.43;69.75;95775.78;5188468;22;20518;-80
2024/03/10 09:16:55;;;;;;;8.57;4.60;;;;;;;11.51;69.14;95765.34;5163794;22;20622;-80
2024/03/10 09:19:17;;;;;;;3.60;2.17;;;;;;;11.54;68.65;95757.19;5189093;22;21085;-80
2024/03/10 09:21:42;;;;;;;5.77;2.80;;;;;;;11.52;68.89;95740.09;5143107;22;20579;-80
2024/03/10 09:24:04;;;;;;;8.77;4.70;;;;;;;11.60;68.56;95734.84;5187886;22;20582;-81
2024/03/10 09:26:28;;;;;;;6.20;3.10;;;;;;;11.55;67.34;95743.16;5143579;22;20533;-81
2024/03/10 09:28:50;;;;;;;3.90;2.10;;;;;;;11.52;66.13;95759.16;5143416;22;20565;-81
2024/03/10 09:31:14;;;;;;;5.27;3.10;;;;;;;11.45;66.80;95775.63;5144098;22;20698;-80
2024/03/10 09:33:38;;;;;;;4.90;2.63;;;;;;;11.50;68.09;95789.00;5165792;22;20548;-81
2024/03/10 09:36:00;;;;;;;5.37;2.50;;;;;;;11.64;67.84;95804.03;5166119;22;20645;-81
2024/03/10 09:38:30;;;;;;;4.70;2.40;;;;;;;11.64;67.23;95824.91;5165514;22;20524;-81
2024/03/10 09:40:51;;;;;;;5.40;3.30;;;;;;;11.70;68.32;95821.59;5190090;22;20569;-80
2024/03/10 09:43:15;;;;;;;7.13;3.93;;;;;;;11.77;68.13;95837.28;5164357;22;20512;-81
2024/03/10 09:45:41;;;;;;;6.90;3.30;;;;;;;11.80;67.63;95844.75;5166701;22;20600;-82
2024/03/10 09:48:05;;;;;;;7.90;3.40;;;;;;;11.92;66.89;95838.22;5166799;22;20588;-83
2024/03/10 09:50:27;;;;;;;4.57;2.83;;;;;;;12.02;67.08;95851.06;5145316;22;20544;-82
2024/03/10 09:52:53;;;;;;;6.00;3.10;;;;;;;12.15;68.19;95848.72;5145099;22;20570;-81
2024/03/10 09:55:17;;;;;;;6.73;3.60;;;;;;;12.22;65.98;95845.25;5166149;22;20557;-82
2024/03/10 09:57:40;;;;;;;7.50;3.37;;;;;;;12.41;68.35;95847.47;5162302;22;20520;-82
2024/03/10 10:00:11;;;;;;;10.33;5.17;;;;;;;12.57;67.38;95844.75;5144559;22;20508;-83
2024/03/10 10:02:35;;;;;;;7.77;3.20;;;;;;;12.64;65.25;95843.09;5167945;22;20540;-82
2024/03/10 10:05:00;;;;;;;5.33;2.70;;;;;;;12.71;67.01;95839.63;5188271;22;20518;-83
2024/03/10 10:07:24;;;;;;;4.03;2.30;;;;;;;12.78;66.58;95817.84;5188999;22;20642;-83
2024/03/10 10:09:55;;;;;;;3.60;2.10;;;;;;;12.79;65.67;95808.19;5167134;22;20559;-83
2024/03/10 10:12:19;;;;;;;4.47;1.90;;;;;;;12.88;66.73;95809.78;5145714;22;20573;-82
2024/03/10 10:14:44;;;;;;;4.00;2.43;;;;;;;12.87;64.60;95803.75;5144482;22;20552;-83
2024/03/10 10:17:07;;;;;;;4.03;2.23;;;;;;;12.89;64.65;95808.81;5145134;22;20624;-82
2024/03/10 10:19:30;;;;;;;4.23;2.03;;;;;;;12.95;65.28;95814.16;5167824;22;21103;-82
2024/03/10 10:21:51;;;;;;;4.20;2.57;;;;;;;13.02;64.90;95833.41;5145140;22;20567;-82
2024/03/10 10:24:15;;;;;;;7.73;4.97;;;;;;;13.10;65.01;95843.81;5166560;22;20631;-83
2024/03/10 10:26:37;;;;;;;3.90;2.23;;;;;;;13.17;64.52;95836.91;5190393;22;20861;-83
2024/03/10 10:29:07;;;;;;;6.50;2.30;;;;;;;13.22;64.62;95811.00;5165843;22;20563;-83
2024/03/10 10:31:29;;;;;;;6.43;5.30;;;;;;;13.23;64.92;95802.16;5164854;22;21178;-83
2024/03/10 10:33:52;;;;;;;7.53;4.23;;;;;;;13.26;64.87;95796.53;5166857;22;20523;-83
2024/03/10 10:36:15;;;;;;;5.03;2.67;;;;;;;13.25;64.93;95802.78;5145034;22;20631;-83
2024/03/10 10:38:38;;;;;;;6.37;2.80;;;;;;;13.29;64.58;95814.50;5190142;22;21105;-82
2024/03/10 10:41:00;;;;;;;5.50;3.70;;;;;;;13.28;65.29;95805.06;5166401;22;20969;-82
2024/03/10 10:43:22;;;;;;;10.37;7.23;;;;;;;13.23;63.70;95813.44;5145126;22;20521;-82
2024/03/10 10:45:48;;;;;;;5.90;4.17;;;;;;;13.19;64.10;95803.50;5166326;22;20520;-82
2024/03/10 10:48:12;;;;;;;5.23;3.50;;;;;;;13.17;64.46;95788.94;5189615;22;21271;-82
2024/03/10 10:50:34;;;;;;;4.90;2.60;;;;;;;13.18;64.68;95780.91;5145733;22;20517;-83
2024/03/10 10:52:56;;;;;;;4.93;1.93;;;;;;;13.25;65.06;95781.84;5189877;22;20548;-82
2024/03/10 10:55:19;;;;;;;4.23;2.20;;;;;;;13.18;64.71;95794.00;5189384;22;20592;-83
2024/03/10 10:57:44;;;;;;;4.87;2.07;;;;;;;13.27;64.93;95790.34;5144142;22;20517;-82
2024/03/10 11:00:22;;;;;;;3.53;1.70;;;;;;;13.37;65.78;95794.31;5145636;22;20592;-83